createdAt,value
2019-05-12T00:02:08.948Z,99.90
2019-05-12T00:04:38.450Z,99.90
2019-05-12T00:07:08.541Z,99.90
2019-05-12T00:09:35.927Z,99.90
2019-05-12T00:12:03.448Z,99.90
2019-05-12T00:14:30.947Z,99.90
2019-05-12T00:16:58.437Z,99.90
2019-05-12T00:19:28.440Z,99.90
2019-05-12T00:21:58.562Z,99.90
2019-05-12T00:24:27.798Z,99.90
2019-05-12T00:26:58.044Z,99.90
2019-05-12T00:29:25.866Z,99.90
2019-05-12T00:31:53.647Z,99.90
2019-05-12T00:34:21.189Z,99.90
2019-05-12T00:36:48.721Z,99.90
2019-05-12T00:39:18.784Z,99.90
2019-05-12T00:41:48.032Z,99.90
2019-05-12T00:44:15.242Z,99.90
2019-05-12T00:46:43.170Z,99.90
2019-05-12T00:49:10.604Z,99.90
2019-05-12T00:51:38.554Z,99.90
2019-05-12T00:54:08.881Z,99.90
2019-05-12T00:56:36.157Z,99.90
2019-05-12T00:59:03.692Z,99.90
2019-05-12T01:01:31.328Z,99.90
2019-05-12T01:03:58.883Z,99.90
2019-05-12T01:06:28.306Z,99.90
2019-05-12T01:08:57.776Z,99.90
2019-05-12T01:11:25.569Z,99.90
2019-05-12T01:13:53.814Z,99.90
2019-05-12T01:16:21.343Z,99.90
2019-05-12T01:18:48.867Z,99.90
2019-05-12T01:21:18.466Z,99.90
2019-05-12T01:23:56.245Z,99.90
2019-05-12T01:26:17.718Z,99.90
2019-05-12T01:28:45.202Z,99.90
2019-05-12T01:31:14.441Z,99.90
2019-05-12T01:33:42.277Z,99.90
2019-05-12T01:36:10.203Z,99.90
2019-05-12T01:38:38.061Z,99.90
2019-05-12T01:41:05.623Z,99.90
2019-05-12T01:43:33.102Z,99.90
2019-05-12T01:46:00.943Z,99.90
2019-05-12T01:48:28.843Z,99.90
2019-05-12T01:50:57.993Z,99.90
2019-05-12T01:53:25.683Z,99.90
2019-05-12T01:55:53.417Z,99.90
2019-05-12T01:58:20.934Z,99.90
2019-05-12T02:00:48.809Z,99.90
2019-05-12T02:03:17.847Z,99.90
2019-05-12T02:05:48.618Z,99.90
2019-05-12T02:08:22.111Z,99.90
2019-05-12T02:10:52.780Z,99.90
2019-05-12T02:13:20.192Z,99.90
2019-05-12T02:15:48.588Z,99.90
2019-05-12T02:18:17.825Z,99.90
2019-05-12T02:20:45.580Z,99.90
2019-05-12T02:23:13.127Z,99.90
2019-05-12T02:25:40.766Z,99.90
2019-05-12T02:28:09.298Z,99.90
2019-05-12T02:30:40.679Z,99.90
2019-05-12T02:33:06.417Z,99.90
2019-05-12T02:35:35.422Z,99.90
2019-05-12T02:38:04.742Z,99.90
2019-05-12T02:40:34.740Z,99.90
2019-05-12T02:43:05.328Z,99.90
2019-05-12T02:45:35.103Z,99.90
2019-05-12T02:48:04.774Z,99.90
2019-05-12T02:50:35.330Z,99.90
2019-05-12T02:53:05.175Z,99.90
2019-05-12T02:55:34.793Z,99.90
2019-05-12T02:58:05.000Z,99.90
2019-05-12T03:00:35.204Z,99.90
2019-05-12T03:03:05.384Z,99.90
2019-05-12T03:05:35.179Z,99.90
2019-05-12T03:08:04.810Z,99.90
2019-05-12T03:10:35.538Z,99.90
2019-05-12T03:13:04.505Z,99.90
2019-05-12T03:15:35.858Z,99.90
2019-05-12T03:18:01.648Z,99.90
2019-05-12T03:20:29.308Z,99.90
2019-05-12T03:22:56.807Z,99.90
2019-05-12T03:25:29.677Z,99.90
2019-05-12T03:27:54.681Z,99.90
2019-05-12T03:30:28.021Z,99.90
2019-05-12T03:32:57.446Z,99.90
2019-05-12T03:35:32.600Z,99.90
2019-05-12T03:37:50.848Z,99.90
2019-05-12T03:40:18.347Z,99.90
2019-05-12T03:42:46.200Z,99.90
2019-05-12T03:45:14.891Z,99.90
2019-05-12T03:47:45.579Z,99.90
2019-05-12T03:50:14.565Z,99.90
2019-05-12T03:52:44.728Z,99.90
2019-05-12T03:55:29.710Z,99.90
2019-05-12T03:57:40.865Z,99.90
2019-05-12T04:00:08.452Z,99.90
2019-05-12T04:02:35.950Z,99.90
2019-05-12T04:05:05.200Z,99.90
2019-05-12T04:07:34.526Z,99.90
2019-05-12T04:10:04.883Z,99.90
2019-05-12T04:12:34.570Z,99.90
2019-05-12T04:15:04.807Z,99.90
2019-05-12T04:17:30.408Z,99.90
2019-05-12T04:19:58.301Z,99.90
2019-05-12T04:22:25.885Z,99.90
2019-05-12T04:24:55.162Z,99.90
2019-05-12T04:27:25.068Z,99.90
2019-05-12T04:29:54.735Z,99.90
2019-05-12T04:32:24.826Z,99.90
2019-05-12T04:34:54.825Z,99.90
2019-05-12T04:37:21.244Z,99.90
2019-05-12T04:39:48.772Z,99.90
2019-05-12T04:42:16.263Z,99.90
2019-05-12T04:44:44.824Z,99.90
2019-05-12T04:47:14.574Z,99.90
2019-05-12T04:49:44.998Z,99.90
2019-05-12T04:52:11.860Z,99.90
2019-05-12T04:54:39.391Z,99.90
2019-05-12T04:57:06.937Z,99.90
2019-05-12T04:59:34.677Z,99.90
2019-05-12T05:02:05.357Z,99.90
2019-05-12T05:04:34.513Z,99.90
2019-05-12T05:07:00.885Z,99.90
2019-05-12T05:09:28.438Z,99.90
2019-05-12T05:11:55.963Z,99.90
2019-05-12T05:14:24.771Z,99.90
2019-05-12T05:16:54.255Z,99.90
2019-05-12T05:19:24.271Z,99.90
2019-05-12T05:21:54.047Z,99.90
2019-05-12T05:24:23.427Z,99.90
2019-05-12T05:26:50.760Z,99.90
2019-05-12T05:29:18.180Z,99.90
2019-05-12T05:31:45.889Z,99.90
2019-05-12T05:34:14.889Z,99.90
2019-05-12T05:36:43.382Z,99.90
2019-05-12T05:39:13.649Z,99.90
2019-05-12T05:41:46.441Z,99.90
2019-05-12T05:44:09.669Z,99.90
2019-05-12T05:46:38.980Z,99.90
2019-05-12T05:49:06.700Z,99.90
2019-05-12T05:51:39.330Z,99.90
2019-05-12T05:54:04.145Z,99.90
2019-05-12T05:56:39.872Z,99.90
2019-05-12T05:59:00.960Z,99.90
2019-05-12T06:01:28.446Z,99.90
2019-05-12T06:03:58.297Z,99.90
2019-05-12T06:06:25.505Z,99.90
2019-05-12T06:08:59.312Z,99.90
2019-05-12T06:11:28.648Z,99.90
2019-05-12T06:13:56.672Z,99.90
2019-05-12T06:16:25.215Z,99.90
2019-05-12T06:18:54.399Z,99.90
2019-05-12T06:21:24.141Z,99.90
2019-05-12T06:23:54.052Z,99.90
2019-05-12T06:26:30.956Z,99.90
2019-05-12T06:28:54.169Z,99.90
2019-05-12T06:31:25.221Z,99.90
2019-05-12T06:33:50.097Z,99.90
2019-05-12T06:36:21.902Z,99.90
2019-05-12T06:38:46.973Z,99.90
2019-05-12T06:41:20.658Z,99.90
2019-05-12T06:43:45.438Z,99.90
2019-05-12T06:46:20.322Z,99.90
2019-05-12T06:48:45.542Z,99.90
2019-05-12T06:51:16.935Z,99.90
2019-05-12T06:53:44.341Z,99.90
2019-05-12T06:56:15.479Z,99.90
2019-05-12T06:58:44.085Z,99.90
2019-05-12T07:01:18.467Z,99.90
2019-05-12T07:03:40.763Z,99.90
2019-05-12T07:06:09.144Z,99.90
2019-05-12T07:08:38.540Z,99.90
2019-05-12T07:11:06.874Z,99.90
2019-05-12T07:13:34.484Z,99.90
2019-05-12T07:16:21.226Z,99.90
2019-05-12T07:18:46.708Z,99.90
2019-05-12T07:21:17.860Z,99.90
2019-05-12T07:23:44.495Z,99.90
2019-05-12T07:26:17.640Z,99.90
2019-05-12T07:28:43.342Z,99.90
2019-05-12T07:31:14.052Z,99.90
2019-05-12T07:33:43.351Z,99.90
2019-05-12T07:36:13.786Z,99.90
2019-05-12T07:38:43.757Z,99.90
2019-05-12T07:41:14.275Z,99.90
2019-05-12T07:43:44.295Z,99.90
2019-05-12T07:46:13.369Z,99.90
2019-05-12T07:48:49.084Z,99.70
2019-05-12T07:51:10.539Z,99.90
2019-05-12T07:53:38.159Z,99.50
2019-05-12T07:56:05.865Z,99.20
2019-05-12T07:58:33.416Z,99.90
2019-05-12T08:01:04.239Z,99.50
2019-05-12T08:03:31.078Z,99.30
2019-05-12T08:06:01.631Z,98.60
2019-05-12T08:08:27.892Z,99.60
2019-05-12T08:10:56.101Z,99.10
2019-05-12T08:13:23.910Z,99.40
2019-05-12T08:15:55.660Z,99.50
2019-05-12T08:18:20.949Z,99.00
2019-05-12T08:20:48.755Z,99.10
2019-05-12T08:23:16.560Z,99.30
2019-05-12T08:25:45.466Z,99.20
2019-05-12T08:28:18.235Z,99.00
2019-05-12T08:30:47.428Z,98.90
2019-05-12T08:33:14.333Z,99.10
2019-05-12T08:35:43.766Z,98.20
2019-05-12T08:38:10.918Z,98.00
2019-05-12T08:40:45.032Z,99.00
2019-05-12T08:43:10.499Z,98.00
2019-05-12T08:45:37.952Z,97.60
2019-05-12T08:48:10.355Z,97.40
2019-05-12T08:50:36.160Z,98.00
2019-05-12T08:53:04.737Z,98.70
2019-05-12T08:55:35.460Z,97.60
2019-05-12T08:58:03.794Z,98.60
2019-05-12T09:00:39.594Z,97.60
2019-05-12T09:03:06.586Z,96.70
2019-05-12T09:05:38.380Z,97.10
2019-05-12T09:08:04.448Z,96.30
2019-05-12T09:10:34.413Z,96.80
2019-05-12T09:13:03.996Z,95.70
2019-05-12T09:15:31.229Z,96.10
2019-05-12T09:17:59.230Z,95.90
2019-05-12T09:20:26.752Z,95.80
2019-05-12T09:23:00.757Z,96.20
2019-05-12T09:25:23.966Z,95.80
2019-05-12T09:27:51.583Z,95.00
2019-05-12T09:30:27.362Z,95.60
2019-05-12T09:32:56.117Z,96.30
2019-05-12T09:35:28.480Z,96.10
2019-05-12T09:37:53.625Z,95.60
2019-05-12T09:40:22.684Z,95.70
2019-05-12T09:42:50.819Z,94.90
2019-05-12T09:45:18.666Z,95.60
2019-05-12T09:47:46.699Z,95.50
2019-05-12T09:50:19.952Z,95.20
2019-05-12T09:52:44.687Z,95.70
2019-05-12T09:55:14.633Z,95.80
2019-05-12T09:57:44.981Z,95.10
2019-05-12T10:00:13.736Z,95.10
2019-05-12T10:02:43.115Z,95.10
2019-05-12T10:05:10.789Z,94.70
2019-05-12T10:07:38.625Z,94.60
2019-05-12T10:10:07.169Z,94.80
2019-05-12T10:12:38.721Z,95.10
2019-05-12T10:15:05.041Z,95.40
2019-05-12T10:17:33.976Z,94.90
2019-05-12T10:20:02.118Z,95.30
2019-05-12T10:22:40.114Z,95.20
2019-05-12T10:25:07.307Z,94.80
2019-05-12T10:27:35.340Z,95.20
2019-05-12T10:30:11.870Z,95.00
2019-05-12T10:32:34.251Z,95.20
2019-05-12T10:35:01.848Z,94.40
2019-05-12T10:37:30.178Z,95.10
2019-05-12T10:39:58.392Z,94.40
2019-05-12T10:42:25.829Z,94.20
2019-05-12T10:44:56.575Z,94.50
2019-05-12T10:47:23.918Z,94.90
2019-05-12T10:49:53.831Z,94.60
2019-05-12T10:52:21.324Z,94.20
2019-05-12T10:54:49.031Z,93.20
2019-05-12T10:57:16.777Z,94.00
2019-05-12T10:59:48.479Z,93.00
2019-05-12T11:02:13.991Z,94.00
2019-05-12T11:04:43.947Z,93.30
2019-05-12T11:07:13.418Z,93.60
2019-05-12T11:09:40.620Z,92.70
2019-05-12T11:12:08.262Z,91.50
2019-05-12T11:14:35.858Z,92.20
2019-05-12T11:17:07.870Z,92.20
2019-05-12T11:19:35.256Z,93.00
2019-05-12T11:22:03.657Z,92.10
2019-05-12T11:24:33.717Z,92.10
2019-05-12T11:27:01.424Z,92.70
2019-05-12T11:29:42.559Z,91.90
2019-05-12T11:32:04.950Z,91.00
2019-05-12T11:34:33.672Z,91.30
2019-05-12T11:37:03.467Z,91.40
2019-05-12T11:39:36.693Z,90.50
2019-05-12T11:42:01.109Z,90.30
2019-05-12T11:44:28.570Z,91.00
2019-05-12T11:46:56.679Z,90.30
2019-05-12T11:49:26.467Z,89.50
2019-05-12T11:51:54.540Z,89.80
2019-05-12T11:54:24.283Z,87.20
2019-05-12T11:56:53.582Z,89.20
2019-05-12T11:59:23.773Z,87.20
2019-05-12T12:01:53.981Z,89.10
2019-05-12T12:04:23.481Z,90.10
2019-05-12T12:06:50.501Z,89.00
2019-05-12T12:09:18.993Z,81.60
2019-05-12T12:11:47.118Z,89.20
2019-05-12T12:14:15.261Z,86.20
2019-05-12T12:16:50.036Z,86.10
2019-05-12T12:19:12.385Z,84.60
2019-05-12T12:21:40.377Z,81.10
2019-05-12T12:24:09.478Z,84.40
2019-05-12T12:26:38.305Z,79.20
2019-05-12T12:29:05.950Z,77.10
2019-05-12T12:31:49.839Z,82.50
2019-05-12T12:34:24.000Z,82.20
2019-05-12T12:36:47.017Z,83.90
2019-05-12T12:39:14.552Z,80.70
2019-05-12T12:41:45.059Z,80.50
2019-05-12T12:44:13.526Z,78.90
2019-05-12T12:46:41.176Z,78.00
2019-05-12T12:49:10.464Z,78.60
2019-05-12T12:51:38.679Z,79.00
2019-05-12T12:54:06.540Z,73.80
2019-05-12T12:56:34.546Z,73.50
2019-05-12T12:59:10.359Z,74.10
2019-05-12T13:01:33.493Z,67.80
2019-05-12T13:04:04.858Z,71.20
2019-05-12T13:06:30.492Z,73.10
2019-05-12T13:08:58.760Z,71.90
2019-05-12T13:11:33.091Z,72.40
2019-05-12T13:13:55.830Z,70.80
2019-05-12T13:16:23.942Z,67.20
2019-05-12T13:18:53.853Z,69.10
2019-05-12T13:21:22.336Z,67.40
2019-05-12T13:23:51.118Z,68.80
2019-05-12T13:26:18.712Z,67.60
2019-05-12T13:28:53.333Z,63.30
2019-05-12T13:31:16.382Z,61.60
2019-05-12T13:33:44.318Z,65.20
2019-05-12T13:36:13.632Z,65.10
2019-05-12T13:38:41.305Z,65.50
2019-05-12T13:41:09.678Z,65.40
2019-05-12T13:43:38.343Z,61.70
2019-05-12T13:46:05.810Z,62.50
2019-05-12T13:48:33.805Z,61.80
2019-05-12T13:51:10.442Z,61.10
2019-05-12T13:53:33.364Z,60.50
2019-05-12T13:56:00.449Z,60.30
2019-05-12T13:58:34.826Z,59.20
2019-05-12T14:01:19.251Z,61.10
2019-05-12T14:03:28.052Z,60.50
2019-05-12T14:05:55.902Z,57.00
2019-05-12T14:08:23.879Z,58.00
2019-05-12T14:10:54.041Z,58.50
2019-05-12T14:13:21.489Z,59.90
2019-05-12T14:15:49.255Z,58.70
2019-05-12T14:18:20.615Z,58.90
2019-05-12T14:20:50.925Z,58.70
2019-05-12T14:23:16.940Z,58.30
2019-05-12T14:25:44.742Z,56.20
2019-05-12T14:28:16.316Z,56.20
2019-05-12T14:30:47.425Z,57.40
2019-05-12T14:33:12.130Z,58.80
2019-05-12T14:35:42.769Z,60.00
2019-05-12T14:38:09.365Z,57.10
2019-05-12T14:40:36.907Z,57.70
2019-05-12T14:43:04.707Z,59.00
2019-05-12T14:45:33.277Z,58.10
2019-05-12T14:48:05.871Z,57.10
2019-05-12T14:50:30.137Z,56.50
2019-05-12T14:52:59.745Z,56.60
2019-05-12T14:55:27.273Z,55.50
2019-05-12T14:57:54.762Z,55.20
2019-05-12T15:00:24.159Z,56.40
2019-05-12T15:02:53.844Z,54.70
2019-05-12T15:05:21.356Z,55.80
2019-05-12T15:07:51.517Z,56.80
2019-05-12T15:10:18.410Z,55.90
2019-05-12T15:12:46.918Z,57.00
2019-05-12T15:15:20.326Z,55.50
2019-05-12T15:17:44.683Z,56.70
2019-05-12T15:20:13.774Z,55.30
2019-05-12T15:22:42.972Z,54.80
2019-05-12T15:25:11.521Z,57.90
2019-05-12T15:27:45.028Z,59.60
2019-05-12T15:30:20.219Z,59.70
2019-05-12T15:32:38.282Z,59.70
2019-05-12T15:35:06.228Z,57.40
2019-05-12T15:37:38.773Z,56.10
2019-05-12T15:40:05.367Z,56.10
2019-05-12T15:42:33.638Z,55.70
2019-05-12T15:45:06.665Z,58.60
2019-05-12T15:47:31.139Z,58.00
2019-05-12T15:49:58.642Z,59.80
2019-05-12T15:52:29.880Z,62.20
2019-05-12T15:54:56.035Z,59.60
2019-05-12T15:57:24.473Z,59.60
2019-05-12T15:59:54.163Z,60.90
2019-05-12T16:02:23.520Z,60.50
2019-05-12T16:04:51.533Z,62.90
2019-05-12T16:07:19.171Z,62.70
2019-05-12T16:09:47.217Z,63.60
2019-05-12T16:12:20.042Z,61.30
2019-05-12T16:14:44.303Z,60.00
2019-05-12T16:17:18.482Z,59.20
2019-05-12T16:19:43.822Z,60.40
2019-05-12T16:22:13.801Z,61.70
2019-05-12T16:24:43.297Z,60.90
2019-05-12T16:27:11.062Z,57.60
2019-05-12T16:29:43.890Z,58.00
2019-05-12T16:32:08.284Z,59.80
2019-05-12T16:34:45.036Z,59.90
2019-05-12T16:37:05.609Z,60.00
2019-05-12T16:39:37.120Z,60.80
2019-05-12T16:42:08.194Z,62.40
2019-05-12T16:44:32.546Z,63.30
2019-05-12T16:47:01.436Z,65.20
2019-05-12T16:49:33.374Z,64.40
2019-05-12T16:51:58.678Z,63.10
2019-05-12T16:54:26.121Z,63.60
2019-05-12T16:56:53.837Z,63.10
2019-05-12T16:59:22.529Z,59.60
2019-05-12T17:01:51.259Z,59.20
2019-05-12T17:04:18.848Z,60.20
2019-05-12T17:06:47.202Z,60.60
2019-05-12T17:09:15.076Z,59.20
2019-05-12T17:11:47.141Z,57.70
2019-05-12T17:14:12.198Z,54.70
2019-05-12T17:16:46.555Z,55.80
2019-05-12T17:19:10.576Z,56.70
2019-05-12T17:21:38.449Z,56.90
2019-05-12T17:24:06.202Z,57.60
2019-05-12T17:26:33.736Z,55.70
2019-05-12T17:29:01.799Z,53.00
2019-05-12T17:31:29.986Z,49.70
2019-05-12T17:34:00.252Z,50.00
2019-05-12T17:36:26.901Z,48.10
2019-05-12T17:38:56.115Z,49.50
2019-05-12T17:41:24.632Z,47.70
2019-05-12T17:44:00.562Z,46.10
2019-05-12T17:46:23.343Z,46.40
2019-05-12T17:48:53.276Z,45.80
2019-05-12T17:51:26.715Z,47.80
2019-05-12T17:53:50.777Z,46.30
2019-05-12T17:56:18.352Z,46.00
2019-05-12T17:58:47.616Z,47.10
2019-05-12T18:01:15.427Z,47.20
2019-05-12T18:03:45.836Z,48.20
2019-05-12T18:06:14.156Z,51.50
2019-05-12T18:08:44.118Z,54.20
2019-05-12T18:11:11.822Z,55.80
2019-05-12T18:13:40.461Z,57.60
2019-05-12T18:16:11.596Z,59.20
2019-05-12T18:18:38.522Z,60.90
2019-05-12T18:21:06.591Z,61.60
2019-05-12T18:23:34.535Z,62.80
2019-05-12T18:26:11.309Z,61.50
2019-05-12T18:28:33.474Z,59.40
2019-05-12T18:31:01.702Z,59.50
2019-05-12T18:33:34.085Z,60.00
2019-05-12T18:35:58.908Z,61.30
2019-05-12T18:38:27.056Z,62.90
2019-05-12T18:40:55.576Z,63.90
2019-05-12T18:43:24.317Z,65.10
2019-05-12T18:45:56.684Z,65.80
2019-05-12T18:48:25.876Z,66.60
2019-05-12T18:50:53.740Z,67.50
2019-05-12T18:53:28.092Z,68.30
2019-05-12T18:55:53.730Z,68.80
2019-05-12T18:58:21.884Z,69.60
2019-05-12T19:00:50.115Z,69.90
2019-05-12T19:03:20.636Z,70.80
2019-05-12T19:05:47.390Z,71.70
2019-05-12T19:08:15.309Z,71.60
2019-05-12T19:10:45.987Z,72.70
2019-05-12T19:13:12.259Z,73.00
2019-05-12T19:15:40.512Z,74.20
2019-05-12T19:18:08.178Z,75.20
2019-05-12T19:20:37.666Z,76.00
2019-05-12T19:23:05.201Z,76.50
2019-05-12T19:25:35.852Z,76.90
2019-05-12T19:28:08.613Z,77.10
2019-05-12T19:30:34.478Z,77.50
2019-05-12T19:33:06.366Z,77.40
2019-05-12T19:35:33.598Z,77.70
2019-05-12T19:38:01.964Z,77.50
2019-05-12T19:40:29.576Z,79.00
2019-05-12T19:43:03.485Z,79.20
2019-05-12T19:45:27.786Z,79.10
2019-05-12T19:47:55.341Z,80.20
2019-05-12T19:50:23.209Z,82.40
2019-05-12T19:52:50.795Z,83.50
2019-05-12T19:55:20.188Z,84.30
2019-05-12T19:57:50.178Z,84.70
2019-05-12T20:00:17.914Z,86.10
2019-05-12T20:02:45.458Z,87.70
2019-05-12T20:05:17.251Z,88.80
2019-05-12T20:07:44.572Z,90.00
2019-05-12T20:10:16.302Z,90.50
2019-05-12T20:12:43.763Z,90.80
2019-05-12T20:15:11.674Z,91.80
2019-05-12T20:17:39.455Z,91.90
2019-05-12T20:20:07.584Z,92.20
2019-05-12T20:22:35.071Z,92.40
2019-05-12T20:25:04.340Z,92.70
2019-05-12T20:27:34.512Z,93.10
2019-05-12T20:30:08.867Z,93.10
2019-05-12T20:32:31.369Z,93.10
2019-05-12T20:34:59.037Z,93.20
2019-05-12T20:37:27.069Z,93.10
2019-05-12T20:40:02.031Z,93.30
2019-05-12T20:42:27.309Z,93.40
2019-05-12T20:44:57.863Z,93.50
2019-05-12T20:47:24.783Z,93.50
2019-05-12T20:49:52.858Z,93.30
2019-05-12T20:52:20.930Z,93.50
2019-05-12T20:54:49.111Z,93.40
2019-05-12T20:57:17.856Z,93.50
2019-05-12T20:59:45.465Z,93.50
2019-05-12T21:02:14.175Z,93.60
2019-05-12T21:04:44.187Z,93.50
2019-05-12T21:07:14.019Z,93.50
2019-05-12T21:09:40.843Z,93.60
2019-05-12T21:12:09.446Z,93.70
2019-05-12T21:14:37.122Z,93.60
2019-05-12T21:17:09.337Z,93.90
2019-05-12T21:19:38.011Z,94.20
2019-05-12T21:22:03.901Z,94.40
2019-05-12T21:24:36.193Z,94.60
2019-05-12T21:27:03.697Z,94.90
2019-05-12T21:29:30.855Z,95.00
2019-05-12T21:32:02.978Z,95.00
2019-05-12T21:34:27.632Z,95.10
2019-05-12T21:36:58.866Z,95.10
2019-05-12T21:39:24.619Z,95.10
2019-05-12T21:41:54.748Z,95.20
2019-05-12T21:44:21.476Z,95.40
2019-05-12T21:47:01.040Z,96.00
2019-05-12T21:49:18.964Z,95.60
2019-05-12T21:51:50.443Z,96.00
2019-05-12T21:54:15.914Z,96.20
2019-05-12T21:56:47.991Z,96.50
2019-05-12T21:59:15.504Z,96.50
2019-05-12T22:01:45.481Z,96.60
2019-05-12T22:04:14.318Z,96.60
2019-05-12T22:06:43.814Z,96.70
2019-05-12T22:09:17.123Z,96.60
2019-05-12T22:11:50.172Z,96.70
2019-05-12T22:14:11.074Z,96.80
2019-05-12T22:16:44.331Z,96.80
2019-05-12T22:19:12.166Z,97.40
2019-05-12T22:21:47.617Z,97.40
2019-05-12T22:24:09.279Z,97.40
2019-05-12T22:26:40.337Z,97.40
2019-05-12T22:29:06.332Z,97.30
2019-05-12T22:31:38.770Z,97.30
2019-05-12T22:34:04.047Z,97.30
2019-05-12T22:36:33.560Z,97.40
2019-05-12T22:39:03.036Z,97.60
2019-05-12T22:41:35.808Z,97.70
2019-05-12T22:43:59.697Z,97.50
2019-05-12T22:46:31.643Z,97.80
2019-05-12T22:48:56.878Z,98.20
2019-05-12T22:51:26.926Z,98.30
2019-05-12T22:53:54.242Z,98.30
2019-05-12T22:56:23.584Z,98.70
2019-05-12T22:58:52.127Z,98.80
2019-05-12T23:01:20.629Z,99.00
2019-05-12T23:03:51.590Z,98.90
2019-05-12T23:06:23.509Z,98.70
2019-05-12T23:08:49.272Z,98.90
2019-05-12T23:11:16.619Z,98.90
2019-05-12T23:13:44.123Z,98.70
2019-05-12T23:16:14.011Z,98.70
2019-05-12T23:18:41.299Z,98.80
2019-05-12T23:21:13.571Z,98.90
2019-05-12T23:23:38.238Z,99.10
2019-05-12T23:26:06.099Z,99.20
2019-05-12T23:28:33.898Z,99.20
2019-05-12T23:31:01.494Z,99.20
2019-05-12T23:33:31.614Z,99.30
2019-05-12T23:35:58.576Z,99.30
2019-05-12T23:38:26.060Z,99.40
2019-05-12T23:40:53.994Z,99.40
2019-05-12T23:43:23.555Z,99.40
2019-05-12T23:45:50.710Z,99.40
2019-05-12T23:48:18.393Z,99.50
2019-05-12T23:50:46.090Z,99.50
2019-05-12T23:53:14.177Z,99.50
2019-05-12T23:55:43.753Z,99.40
2019-05-12T23:58:11.389Z,99.30
